createdAt,value
2023-01-23T00:00:01.029Z,28.10
2023-01-23T00:00:38.672Z,29.10
2023-01-23T00:01:30.303Z,27.10
2023-01-23T00:02:03.721Z,26.90
2023-01-23T00:02:37.265Z,26.40
2023-01-23T00:03:10.662Z,27.00
2023-01-23T00:03:44.282Z,28.60
2023-01-23T00:04:17.595Z,29.50
2023-01-23T00:04:51.044Z,27.90
2023-01-23T00:05:24.443Z,28.80
2023-01-23T00:06:03.298Z,29.50
2023-01-23T00:06:37.054Z,27.80
2023-01-23T00:07:10.833Z,27.40
2023-01-23T00:07:44.159Z,25.10
2023-01-23T00:08:17.502Z,28.70
2023-01-23T00:08:51.448Z,28.90
2023-01-23T00:09:24.792Z,26.90
2023-01-23T00:09:58.166Z,28.80
2023-01-23T00:10:31.573Z,29.70
2023-01-23T00:11:07.203Z,28.30
2023-01-23T00:11:40.593Z,30.50
2023-01-23T00:12:13.895Z,28.60
2023-01-23T00:12:50.488Z,29.80
2023-01-23T00:13:24.761Z,27.90
2023-01-23T00:13:59.894Z,27.20
2023-01-23T00:14:34.167Z,29.00
2023-01-23T00:15:08.169Z,28.30
2023-01-23T00:15:41.909Z,27.70
2023-01-23T00:16:17.947Z,26.70
2023-01-23T00:16:51.582Z,29.50
2023-01-23T00:17:27.480Z,27.30
2023-01-23T00:18:00.737Z,27.90
2023-01-23T00:18:34.577Z,30.10
2023-01-23T00:19:10.352Z,28.50
2023-01-23T00:19:43.739Z,27.30
2023-01-23T00:20:17.381Z,30.00
2023-01-23T00:20:50.938Z,29.10
2023-01-23T00:21:27.796Z,27.30
2023-01-23T00:22:01.272Z,28.50
2023-01-23T00:22:34.590Z,31.30
2023-01-23T00:23:08.839Z,29.50
2023-01-23T00:23:44.273Z,29.70
2023-01-23T00:24:17.839Z,28.30
2023-01-23T00:24:51.217Z,28.90
2023-01-23T00:25:24.806Z,28.70
2023-01-23T00:26:11.275Z,30.10
2023-01-23T00:26:44.949Z,29.10
2023-01-23T00:27:19.156Z,30.80
2023-01-23T00:27:52.494Z,29.30
2023-01-23T00:28:28.097Z,29.00
2023-01-23T00:29:03.172Z,30.40
2023-01-23T00:29:36.867Z,30.20
2023-01-23T00:30:11.174Z,27.70
2023-01-23T00:30:44.564Z,27.50
2023-01-23T00:31:21.289Z,30.60
2023-01-23T00:31:58.017Z,30.20
2023-01-23T00:32:31.422Z,27.10
2023-01-23T00:33:05.007Z,27.60
2023-01-23T00:33:40.515Z,29.70
2023-01-23T00:34:15.777Z,29.00
2023-01-23T00:34:49.762Z,26.60
2023-01-23T00:35:23.371Z,28.10
2023-01-23T00:35:56.815Z,30.50
2023-01-23T00:36:35.791Z,27.50
2023-01-23T00:37:09.253Z,27.50
2023-01-23T00:37:42.809Z,30.00
2023-01-23T00:38:17.979Z,26.60
2023-01-23T00:38:52.622Z,30.90
2023-01-23T00:39:26.092Z,29.70
2023-01-23T00:39:59.407Z,31.00
2023-01-23T00:40:34.242Z,27.20
2023-01-23T00:41:08.343Z,28.20
2023-01-23T00:41:41.706Z,30.80
2023-01-23T00:42:15.071Z,27.20
2023-01-23T00:42:48.531Z,29.80
2023-01-23T00:43:24.389Z,29.90
2023-01-23T00:43:57.821Z,29.50
2023-01-23T00:44:31.768Z,29.40
2023-01-23T00:45:06.499Z,29.40
2023-01-23T00:45:39.880Z,27.90
2023-01-23T00:46:13.593Z,30.80
2023-01-23T00:46:48.892Z,28.30
2023-01-23T00:47:24.158Z,25.90
2023-01-23T00:47:57.420Z,25.90
2023-01-23T00:48:31.195Z,29.30
2023-01-23T00:49:05.719Z,29.10
2023-01-23T00:49:39.091Z,27.10
2023-01-23T00:50:12.474Z,28.50
2023-01-23T00:50:48.713Z,28.20
2023-01-23T00:51:22.641Z,28.70
2023-01-23T00:51:56.882Z,28.40
2023-01-23T00:52:30.966Z,28.50
2023-01-23T00:53:04.554Z,27.10
2023-01-23T00:53:37.953Z,27.00
2023-01-23T00:54:11.312Z,26.90
2023-01-23T00:54:44.683Z,27.70
2023-01-23T00:55:17.989Z,26.60
2023-01-23T00:55:51.317Z,29.30
2023-01-23T00:56:24.791Z,28.90
2023-01-23T00:56:59.555Z,28.20
2023-01-23T00:57:32.958Z,27.30
2023-01-23T00:58:06.401Z,27.10
2023-01-23T00:58:44.113Z,28.60
2023-01-23T00:59:19.449Z,29.80
2023-01-23T00:59:52.898Z,26.50
2023-01-23T01:00:26.531Z,26.10
2023-01-23T01:00:59.914Z,25.60
2023-01-23T01:01:33.356Z,28.10
2023-01-23T01:02:07.335Z,27.40
2023-01-23T01:02:40.766Z,27.00
2023-01-23T01:03:14.483Z,27.70
2023-01-23T01:03:49.036Z,27.70
2023-01-23T01:04:22.568Z,25.80
2023-01-23T01:04:55.953Z,26.30
2023-01-23T01:05:29.477Z,28.40
2023-01-23T01:06:03.197Z,27.40
2023-01-23T01:06:36.871Z,28.50
2023-01-23T01:07:12.652Z,24.90
2023-01-23T01:07:46.587Z,26.40
2023-01-23T01:08:23.129Z,28.10
2023-01-23T01:09:01.331Z,27.60
2023-01-23T01:09:36.570Z,27.70
2023-01-23T01:10:11.131Z,26.00
2023-01-23T01:10:44.822Z,25.30
2023-01-23T01:11:18.532Z,26.30
2023-01-23T01:11:52.291Z,25.20
2023-01-23T01:12:25.725Z,26.40
2023-01-23T01:13:00.558Z,25.60
2023-01-23T01:13:34.039Z,28.10
2023-01-23T01:14:07.620Z,27.20
2023-01-23T01:14:41.205Z,28.60
2023-01-23T01:15:15.195Z,26.30
2023-01-23T01:15:52.895Z,29.50
2023-01-23T01:16:28.866Z,28.20
2023-01-23T01:17:04.604Z,25.80
2023-01-23T01:17:38.005Z,27.60
2023-01-23T01:18:11.397Z,28.90
2023-01-23T01:18:45.495Z,28.40
2023-01-23T01:19:19.454Z,27.20
2023-01-23T01:19:52.806Z,25.90
2023-01-23T01:20:27.899Z,25.00
2023-01-23T01:21:05.875Z,27.50
2023-01-23T01:21:40.309Z,24.10
2023-01-23T01:22:13.954Z,26.00
2023-01-23T01:22:47.363Z,25.50
2023-01-23T01:23:20.974Z,28.60
2023-01-23T01:23:54.322Z,28.10
2023-01-23T01:24:27.804Z,27.40
2023-01-23T01:25:01.305Z,28.50
2023-01-23T01:25:34.973Z,27.40
2023-01-23T01:26:08.519Z,28.30
2023-01-23T01:26:41.961Z,28.40
2023-01-23T01:27:16.516Z,27.70
2023-01-23T01:27:49.870Z,25.30
2023-01-23T01:28:23.248Z,26.80
2023-01-23T01:28:57.489Z,28.00
2023-01-23T01:29:31.048Z,27.10
2023-01-23T01:30:04.934Z,27.20
2023-01-23T01:30:38.319Z,28.00
2023-01-23T01:31:14.336Z,27.10
2023-01-23T01:31:48.272Z,27.20
2023-01-23T01:32:21.703Z,27.50
2023-01-23T01:32:56.024Z,25.90
2023-01-23T01:33:29.543Z,25.80
2023-01-23T01:34:03.020Z,27.50
2023-01-23T01:34:36.621Z,27.50
2023-01-23T01:35:11.259Z,26.80
2023-01-23T01:35:44.713Z,26.50
2023-01-23T01:36:22.561Z,27.50
2023-01-23T01:36:56.529Z,27.50
2023-01-23T01:37:36.009Z,26.30
2023-01-23T01:38:09.623Z,27.10
2023-01-23T01:38:43.145Z,28.50
2023-01-23T01:39:16.730Z,29.00
2023-01-23T01:39:50.183Z,27.30
2023-01-23T01:40:28.974Z,26.20
2023-01-23T01:41:02.631Z,26.40
2023-01-23T01:41:36.632Z,28.90
2023-01-23T01:42:10.091Z,27.80
2023-01-23T01:42:48.647Z,27.00
2023-01-23T01:43:25.616Z,27.10
2023-01-23T01:44:00.285Z,28.00
2023-01-23T01:45:01.559Z,27.40
2023-01-23T01:46:13.023Z,26.70
2023-01-23T01:46:47.214Z,24.50
2023-01-23T01:47:20.744Z,26.80
2023-01-23T01:47:54.211Z,28.00
2023-01-23T01:48:32.792Z,26.40
2023-01-23T01:49:15.766Z,27.10
2023-01-23T01:49:50.781Z,27.10
2023-01-23T01:50:24.209Z,27.80
2023-01-23T01:50:59.469Z,29.90
2023-01-23T01:52:09.812Z,29.40
2023-01-23T01:52:44.405Z,28.90
2023-01-23T01:53:18.300Z,26.20
2023-01-23T01:54:04.353Z,28.10
2023-01-23T01:54:43.488Z,27.80
2023-01-23T01:55:17.475Z,29.50
2023-01-23T01:55:50.942Z,29.50
2023-01-23T01:56:28.279Z,28.90
2023-01-23T01:57:17.222Z,29.80
2023-01-23T01:57:54.418Z,26.70
2023-01-23T01:58:28.798Z,27.30
2023-01-23T01:59:03.249Z,28.90
2023-01-23T01:59:41.823Z,30.30
2023-01-23T02:00:19.936Z,30.20
2023-01-23T02:00:54.524Z,27.10
2023-01-23T02:01:28.974Z,30.00
2023-01-23T02:02:13.158Z,30.00
2023-01-23T02:03:03.154Z,30.50
2023-01-23T02:03:36.573Z,30.40
2023-01-23T02:04:10.586Z,31.40
2023-01-23T02:04:50.854Z,31.40
2023-01-23T02:05:46.705Z,31.00
2023-01-23T02:06:21.160Z,27.60
2023-01-23T02:06:56.036Z,31.30
2023-01-23T02:07:29.410Z,33.10
2023-01-23T02:08:26.429Z,30.90
2023-01-23T02:09:24.865Z,28.70
2023-01-23T02:09:58.448Z,28.60
2023-01-23T02:10:33.917Z,31.00
2023-01-23T02:11:08.134Z,33.00
2023-01-23T02:11:41.752Z,30.20
2023-01-23T02:12:15.197Z,31.90
2023-01-23T02:12:51.530Z,31.90
2023-01-23T02:13:26.086Z,30.90
2023-01-23T02:13:59.554Z,32.20
2023-01-23T02:14:33.183Z,34.40
2023-01-23T02:15:08.040Z,33.40
2023-01-23T02:15:41.916Z,33.00
2023-01-23T02:16:20.967Z,33.70
2023-01-23T02:16:59.948Z,32.90
2023-01-23T02:17:35.861Z,34.60
2023-01-23T02:18:09.283Z,33.60
2023-01-23T02:18:47.991Z,35.70
2023-01-23T02:19:30.697Z,30.50
2023-01-23T02:20:12.993Z,30.30
2023-01-23T02:20:47.662Z,29.70
2023-01-23T02:21:25.480Z,31.00
2023-01-23T02:22:19.479Z,30.40
2023-01-23T02:23:11.605Z,29.70
2023-01-23T02:23:45.569Z,32.20
2023-01-23T02:24:37.459Z,33.60
2023-01-23T02:25:41.422Z,32.50
2023-01-23T02:26:22.415Z,30.10
2023-01-23T02:26:55.917Z,31.70
2023-01-23T02:27:31.125Z,30.00
2023-01-23T02:28:05.004Z,32.60
2023-01-23T02:28:44.826Z,31.30
2023-01-23T02:29:20.784Z,34.30
2023-01-23T02:30:00.305Z,34.80
2023-01-23T02:30:34.628Z,32.40
2023-01-23T02:31:08.996Z,33.60
2023-01-23T02:31:44.479Z,35.80
2023-01-23T02:32:19.901Z,35.20
2023-01-23T02:32:53.989Z,35.10
2023-01-23T02:33:27.294Z,35.50
2023-01-23T02:34:01.094Z,32.70
2023-01-23T02:34:35.269Z,35.30
2023-01-23T02:35:21.107Z,35.00
2023-01-23T02:35:55.433Z,34.20
2023-01-23T02:36:32.963Z,34.10
2023-01-23T02:37:08.997Z,33.60
2023-01-23T02:37:45.735Z,31.80
2023-01-23T02:38:25.166Z,31.80
2023-01-23T02:39:06.540Z,32.50
2023-01-23T02:39:40.307Z,30.00
2023-01-23T02:40:15.052Z,33.90
2023-01-23T02:40:48.812Z,34.00
2023-01-23T02:41:30.515Z,35.60
2023-01-23T02:42:06.081Z,32.80
2023-01-23T02:42:52.016Z,31.60
2023-01-23T02:43:34.824Z,32.20
2023-01-23T02:44:14.974Z,36.60
2023-01-23T02:44:50.132Z,31.10
2023-01-23T02:45:24.891Z,33.80
2023-01-23T02:45:58.535Z,32.60
2023-01-23T02:46:32.374Z,34.00
2023-01-23T02:47:11.932Z,32.00
2023-01-23T02:47:47.545Z,34.30
2023-01-23T02:48:21.988Z,33.60
2023-01-23T02:48:55.581Z,35.30
2023-01-23T02:51:22.553Z,31.30
2023-01-23T02:51:56.986Z,31.70
2023-01-23T02:52:32.206Z,33.00
2023-01-23T02:53:06.370Z,28.50
2023-01-23T02:53:40.055Z,32.70
2023-01-23T02:54:13.514Z,33.70
2023-01-23T02:54:47.780Z,36.90
2023-01-23T02:55:26.691Z,34.30
2023-01-23T02:56:00.937Z,33.00
2023-01-23T02:56:34.653Z,34.60
2023-01-23T02:57:08.271Z,33.70
2023-01-23T02:57:41.697Z,34.70
2023-01-23T02:58:33.985Z,34.70
2023-01-23T02:59:26.199Z,33.40
2023-01-23T03:00:18.109Z,28.80
2023-01-23T03:00:51.606Z,30.40
2023-01-23T03:01:27.475Z,35.40
2023-01-23T03:02:00.850Z,33.10
2023-01-23T03:02:34.660Z,33.60
2023-01-23T03:03:08.835Z,31.90
2023-01-23T03:03:42.643Z,34.20
2023-01-23T03:04:16.014Z,33.40
2023-01-23T03:04:49.354Z,34.90
2023-01-23T03:05:22.736Z,34.60
2023-01-23T03:05:59.601Z,34.20
2023-01-23T03:06:37.721Z,34.70
2023-01-23T03:07:11.297Z,34.00
2023-01-23T03:07:45.053Z,33.80
2023-01-23T03:08:18.342Z,32.60
2023-01-23T03:08:51.840Z,29.80
2023-01-23T03:09:25.510Z,32.00
2023-01-23T03:09:58.936Z,32.00
2023-01-23T03:10:32.317Z,33.20
2023-01-23T03:11:05.747Z,32.60
2023-01-23T03:11:41.528Z,33.70
2023-01-23T03:12:16.448Z,34.80
2023-01-23T03:12:49.816Z,34.50
2023-01-23T03:13:23.379Z,33.20
2023-01-23T03:13:56.681Z,34.00
2023-01-23T03:14:31.853Z,33.30
2023-01-23T03:15:06.310Z,35.10
2023-01-23T03:15:46.115Z,36.20
2023-01-23T03:16:19.551Z,33.80
2023-01-23T03:16:54.217Z,34.70
2023-01-23T03:17:29.658Z,35.50
2023-01-23T03:18:03.288Z,33.60
2023-01-23T03:18:52.752Z,34.80
2023-01-23T03:19:27.447Z,32.30
2023-01-23T03:20:04.787Z,32.40
2023-01-23T03:20:40.086Z,32.80
2023-01-23T03:21:13.425Z,34.20
2023-01-23T03:21:47.555Z,37.20
2023-01-23T03:22:21.076Z,32.70
2023-01-23T03:22:55.056Z,32.30
2023-01-23T03:23:28.379Z,34.50
2023-01-23T03:24:05.257Z,35.50
2023-01-23T03:24:39.325Z,36.90
2023-01-23T03:25:12.649Z,35.80
2023-01-23T03:25:49.079Z,33.40
2023-01-23T03:26:22.630Z,35.30
2023-01-23T03:26:56.119Z,36.20
2023-01-23T03:27:32.394Z,37.10
2023-01-23T03:28:25.998Z,35.10
2023-01-23T03:29:18.454Z,31.10
2023-01-23T03:30:10.923Z,33.10
2023-01-23T03:30:44.409Z,31.50
2023-01-23T03:31:18.179Z,33.30
2023-01-23T03:31:51.799Z,34.80
2023-01-23T03:32:26.349Z,35.90
2023-01-23T03:33:00.770Z,34.50
2023-01-23T03:33:34.327Z,30.60
2023-01-23T03:34:08.292Z,36.30
2023-01-23T03:34:42.599Z,34.30
2023-01-23T03:35:18.177Z,35.10
2023-01-23T03:35:51.651Z,37.70
2023-01-23T03:36:25.039Z,36.20
2023-01-23T03:36:58.838Z,37.80
2023-01-23T03:37:32.270Z,38.70
2023-01-23T03:38:05.920Z,34.60
2023-01-23T03:38:39.838Z,32.80
2023-01-23T03:39:31.920Z,35.60
2023-01-23T03:40:24.487Z,35.30
2023-01-23T03:41:16.813Z,33.10
2023-01-23T03:41:50.626Z,33.30
2023-01-23T03:42:24.675Z,37.70
2023-01-23T03:42:59.152Z,35.80
2023-01-23T03:43:33.694Z,37.50
2023-01-23T03:44:07.069Z,37.40
2023-01-23T03:44:41.125Z,36.80
2023-01-23T03:45:14.651Z,37.30
2023-01-23T03:45:48.280Z,40.90
2023-01-23T03:46:22.002Z,36.50
2023-01-23T03:46:55.944Z,33.20
2023-01-23T03:47:29.827Z,31.30
2023-01-23T03:48:03.505Z,33.80
2023-01-23T03:48:37.030Z,29.90
2023-01-23T03:49:10.723Z,31.80
2023-01-23T03:49:44.167Z,33.00
2023-01-23T03:50:18.053Z,33.10
2023-01-23T03:50:51.983Z,34.40
2023-01-23T03:51:26.642Z,34.20
2023-01-23T03:52:00.363Z,32.50
2023-01-23T03:52:38.154Z,36.20
2023-01-23T03:53:12.032Z,35.60
2023-01-23T03:53:45.751Z,36.20
2023-01-23T03:54:20.793Z,34.80
2023-01-23T03:54:54.253Z,35.30
2023-01-23T03:55:27.597Z,36.40
2023-01-23T03:56:01.633Z,34.00
2023-01-23T03:56:35.615Z,35.40
2023-01-23T03:57:09.130Z,34.10
2023-01-23T03:58:05.048Z,34.00
2023-01-23T03:58:40.360Z,35.80
2023-01-23T03:59:13.780Z,35.80
2023-01-23T03:59:47.362Z,33.10
2023-01-23T04:00:21.632Z,35.70
2023-01-23T04:01:03.608Z,32.80
2023-01-23T04:01:38.626Z,35.10
2023-01-23T04:02:12.785Z,31.20
2023-01-23T04:02:46.180Z,33.70
2023-01-23T04:03:20.671Z,33.90
2023-01-23T04:03:54.043Z,37.00
2023-01-23T04:04:28.843Z,33.20
2023-01-23T04:05:02.263Z,34.20
2023-01-23T04:05:35.861Z,28.80
2023-01-23T04:06:09.364Z,34.10
2023-01-23T04:06:42.802Z,34.20
2023-01-23T04:07:16.249Z,35.70
2023-01-23T04:07:50.075Z,36.20
2023-01-23T04:08:23.463Z,29.00
2023-01-23T04:08:58.432Z,33.70
2023-01-23T04:09:32.047Z,33.20
2023-01-23T04:10:05.871Z,35.40
2023-01-23T04:10:39.233Z,28.70
2023-01-23T04:11:18.350Z,32.10
2023-01-23T04:11:52.345Z,29.30
2023-01-23T04:12:28.667Z,37.50
2023-01-23T04:13:02.387Z,30.20
2023-01-23T04:13:37.114Z,34.50
2023-01-23T04:14:10.560Z,32.50
2023-01-23T04:14:44.078Z,30.60
2023-01-23T04:15:19.640Z,35.30
2023-01-23T04:15:53.201Z,34.40
2023-01-23T04:16:28.963Z,33.60
2023-01-23T04:17:02.466Z,34.80
2023-01-23T04:17:36.044Z,35.70
2023-01-23T04:18:09.829Z,36.70
2023-01-23T04:18:43.352Z,34.50
2023-01-23T04:19:21.048Z,35.00
2023-01-23T04:19:54.569Z,35.70
2023-01-23T04:20:27.982Z,36.00
2023-01-23T04:21:01.766Z,36.70
2023-01-23T04:21:35.763Z,35.50
2023-01-23T04:22:10.629Z,32.50
2023-01-23T04:22:48.648Z,33.70
2023-01-23T04:23:22.739Z,35.40
2023-01-23T04:23:56.184Z,35.00
2023-01-23T04:24:29.548Z,33.20
2023-01-23T04:25:03.039Z,29.30
2023-01-23T04:25:37.069Z,35.80
2023-01-23T04:26:10.471Z,31.40
2023-01-23T04:26:43.962Z,34.30
2023-01-23T04:27:17.627Z,35.40
2023-01-23T04:27:51.038Z,32.40
2023-01-23T04:28:25.001Z,31.10
2023-01-23T04:28:58.443Z,34.20
2023-01-23T04:29:32.021Z,27.50
2023-01-23T04:30:05.819Z,34.20
2023-01-23T04:30:39.788Z,33.90
2023-01-23T04:31:19.671Z,34.90
2023-01-23T04:31:53.687Z,30.00
2023-01-23T04:32:27.345Z,32.60
2023-01-23T04:33:00.798Z,32.80
2023-01-23T04:33:34.547Z,26.50
2023-01-23T04:34:09.752Z,31.00
2023-01-23T04:34:45.201Z,31.70
2023-01-23T04:35:18.625Z,32.60
2023-01-23T04:35:55.770Z,31.10
2023-01-23T04:36:29.445Z,31.00
2023-01-23T04:37:02.991Z,31.00
2023-01-23T04:37:36.547Z,30.50
2023-01-23T04:38:10.482Z,29.70
2023-01-23T04:38:44.293Z,30.30
2023-01-23T04:39:31.836Z,30.30
2023-01-23T04:40:06.030Z,34.00
2023-01-23T04:41:24.657Z,31.00
2023-01-23T04:42:03.617Z,35.20
2023-01-23T04:42:57.260Z,33.90
2023-01-23T04:43:51.059Z,27.10
2023-01-23T04:44:25.131Z,30.20
2023-01-23T04:45:12.176Z,30.80
2023-01-23T04:46:08.975Z,30.20
2023-01-23T04:47:02.607Z,28.40
2023-01-23T04:47:38.926Z,28.00
2023-01-23T04:48:15.299Z,33.80
2023-01-23T04:48:49.473Z,31.60
2023-01-23T04:49:24.251Z,29.50
2023-01-23T04:49:57.646Z,28.10
2023-01-23T04:50:32.379Z,32.70
2023-01-23T04:51:06.403Z,31.60
2023-01-23T04:51:39.999Z,31.20
2023-01-23T04:52:15.308Z,33.60
2023-01-23T04:52:54.115Z,35.50
2023-01-23T04:53:27.681Z,35.90
2023-01-23T04:54:06.033Z,33.20
2023-01-23T04:54:39.384Z,29.00
2023-01-23T04:55:13.067Z,31.50
2023-01-23T04:55:49.563Z,35.00
2023-01-23T04:56:23.775Z,29.80
2023-01-23T04:56:57.365Z,33.70
2023-01-23T04:57:30.851Z,32.70
2023-01-23T04:58:11.683Z,32.20
2023-01-23T04:58:45.255Z,33.50
2023-01-23T04:59:21.776Z,33.80
2023-01-23T04:59:55.139Z,34.60
2023-01-23T05:00:29.682Z,33.90
2023-01-23T05:01:08.212Z,31.30
2023-01-23T05:01:42.624Z,33.40
2023-01-23T05:02:17.752Z,33.40
2023-01-23T05:02:54.386Z,36.20
2023-01-23T05:03:30.161Z,32.10
2023-01-23T05:04:04.464Z,33.90
2023-01-23T05:04:39.062Z,32.20
2023-01-23T05:05:12.843Z,35.00
2023-01-23T05:05:48.689Z,31.10
2023-01-23T05:06:22.348Z,31.50
2023-01-23T05:06:57.729Z,32.50
2023-01-23T05:07:31.130Z,33.70
2023-01-23T05:08:13.818Z,34.00
2023-01-23T05:08:48.165Z,34.50
2023-01-23T05:09:32.845Z,31.40
2023-01-23T05:10:06.825Z,34.40
2023-01-23T05:10:40.517Z,32.30
2023-01-23T05:11:15.746Z,31.10
2023-01-23T05:11:50.142Z,32.60
2023-01-23T05:12:24.179Z,34.20
2023-01-23T05:12:57.878Z,32.50
2023-01-23T05:13:31.555Z,33.20
2023-01-23T05:14:04.980Z,36.20
2023-01-23T05:14:38.538Z,33.60
2023-01-23T05:15:12.356Z,34.00
2023-01-23T05:15:47.353Z,34.90
2023-01-23T05:16:20.809Z,36.10
2023-01-23T05:17:12.750Z,31.50
2023-01-23T05:17:51.230Z,32.80
2023-01-23T05:18:24.715Z,33.60
2023-01-23T05:18:59.541Z,35.30
2023-01-23T05:19:33.403Z,32.60
2023-01-23T05:20:09.026Z,30.50
2023-01-23T05:20:43.732Z,35.70
2023-01-23T05:21:17.146Z,35.40
2023-01-23T05:21:50.742Z,36.00
2023-01-23T05:22:26.950Z,35.10
2023-01-23T05:23:00.547Z,35.20
2023-01-23T05:23:40.304Z,31.70
2023-01-23T05:24:13.838Z,35.50
2023-01-23T05:24:47.622Z,35.90
2023-01-23T05:25:25.072Z,34.40
2023-01-23T05:25:59.245Z,35.90
2023-01-23T05:26:35.392Z,34.00
2023-01-23T05:27:08.794Z,36.80
2023-01-23T05:27:44.684Z,37.60
2023-01-23T05:28:19.085Z,36.00
2023-01-23T05:28:55.294Z,34.80
2023-01-23T05:29:29.947Z,38.50
2023-01-23T05:30:09.685Z,37.90
2023-01-23T05:30:44.961Z,37.70
2023-01-23T05:31:24.803Z,36.00
2023-01-23T05:32:18.245Z,35.80
2023-01-23T05:33:24.212Z,34.10
2023-01-23T05:33:57.769Z,38.00
2023-01-23T05:34:31.318Z,36.80
2023-01-23T05:35:05.654Z,36.20
2023-01-23T05:35:40.273Z,40.50
2023-01-23T05:36:14.275Z,40.90
2023-01-23T05:36:47.790Z,38.00
2023-01-23T05:37:25.527Z,41.10
2023-01-23T05:38:05.986Z,40.20
2023-01-23T05:38:40.469Z,41.40
2023-01-23T05:39:14.363Z,37.70
2023-01-23T05:39:47.868Z,42.60
2023-01-23T05:40:22.689Z,41.10
2023-01-23T05:41:14.736Z,40.60
2023-01-23T05:42:06.811Z,42.10
2023-01-23T05:42:59.304Z,37.10
2023-01-23T05:43:52.208Z,40.80
2023-01-23T05:44:36.030Z,38.00
2023-01-23T05:45:16.182Z,44.90
2023-01-23T05:45:49.747Z,41.90
2023-01-23T05:46:31.739Z,40.80
2023-01-23T05:47:05.827Z,41.40
2023-01-23T05:47:40.118Z,44.20
2023-01-23T05:48:13.493Z,44.50
2023-01-23T05:48:51.469Z,43.90
2023-01-23T05:49:26.594Z,42.90
2023-01-23T05:50:00.118Z,45.50
2023-01-23T05:50:36.998Z,46.80
2023-01-23T05:51:13.383Z,44.70
2023-01-23T05:51:49.232Z,34.40
2023-01-23T05:52:22.623Z,42.60
2023-01-23T05:52:56.125Z,45.20
2023-01-23T05:53:30.141Z,47.60
2023-01-23T05:54:04.415Z,43.50
2023-01-23T05:54:39.259Z,44.60
2023-01-23T05:55:13.402Z,46.30
2023-01-23T05:55:46.912Z,45.80
2023-01-23T05:56:20.438Z,48.10
2023-01-23T05:57:23.519Z,44.40
2023-01-23T05:58:02.974Z,38.40
2023-01-23T05:58:55.409Z,41.70
2023-01-23T05:59:43.240Z,43.10
2023-01-23T06:00:37.088Z,42.10
2023-01-23T06:01:34.027Z,42.00
2023-01-23T06:02:26.199Z,40.90
2023-01-23T06:03:18.300Z,63.50
2023-01-23T06:04:02.919Z,42.40
2023-01-23T06:04:41.410Z,48.40
2023-01-23T06:05:23.776Z,42.30
2023-01-23T06:06:08.277Z,39.20
2023-01-23T06:06:42.804Z,45.30
2023-01-23T06:07:18.598Z,47.80
2023-01-23T06:07:52.375Z,48.00
2023-01-23T06:08:25.873Z,47.20
2023-01-23T06:09:00.212Z,43.10
2023-01-23T06:09:33.824Z,47.30
2023-01-23T06:10:09.859Z,42.40
2023-01-23T06:10:43.495Z,47.80
2023-01-23T06:11:17.092Z,48.90
2023-01-23T06:11:50.649Z,48.00
2023-01-23T06:12:24.174Z,49.10
2023-01-23T06:12:57.661Z,56.10
2023-01-23T06:13:31.394Z,42.00
2023-01-23T06:14:05.510Z,47.80
2023-01-23T06:14:39.244Z,48.90
2023-01-23T06:15:13.054Z,48.20
2023-01-23T06:15:46.608Z,50.80
2023-01-23T06:16:20.266Z,45.70
2023-01-23T06:16:53.852Z,61.80
2023-01-23T06:17:27.452Z,50.60
2023-01-23T06:18:01.213Z,48.30
2023-01-23T06:18:34.780Z,52.20
2023-01-23T06:19:08.277Z,53.80
2023-01-23T06:19:43.107Z,41.40
2023-01-23T06:20:17.218Z,48.00
2023-01-23T06:20:58.208Z,47.30
2023-01-23T06:21:31.833Z,45.70
2023-01-23T06:22:05.434Z,48.30
2023-01-23T06:22:44.621Z,47.20
2023-01-23T06:23:19.284Z,66.00
2023-01-23T06:23:52.689Z,63.20
2023-01-23T06:24:29.453Z,53.60
2023-01-23T06:25:03.653Z,44.90
2023-01-23T06:25:37.423Z,48.40
2023-01-23T06:26:14.051Z,64.50
2023-01-23T06:26:47.834Z,50.90
2023-01-23T06:27:23.656Z,43.40
2023-01-23T06:27:57.219Z,46.10
2023-01-23T06:28:32.472Z,52.80
2023-01-23T06:29:06.056Z,51.80
2023-01-23T06:29:39.450Z,62.00
2023-01-23T06:30:14.595Z,46.20
2023-01-23T06:30:50.344Z,52.50
2023-01-23T06:31:32.760Z,38.20
2023-01-23T06:32:07.523Z,63.70
2023-01-23T06:32:41.693Z,62.20
2023-01-23T06:33:15.914Z,65.10
2023-01-23T06:33:51.713Z,47.60
2023-01-23T06:34:25.681Z,44.30
2023-01-23T06:35:03.012Z,67.30
2023-01-23T06:35:39.325Z,51.00
2023-01-23T06:36:13.365Z,53.60
2023-01-23T06:36:47.682Z,46.60
2023-01-23T06:37:24.114Z,90.60
2023-01-23T06:37:57.678Z,125.70
2023-01-23T06:38:32.024Z,109.90
2023-01-23T06:39:06.459Z,147.50
2023-01-23T06:39:44.946Z,98.30
2023-01-23T06:40:19.180Z,133.60
2023-01-23T06:40:58.942Z,113.40
2023-01-23T06:41:35.854Z,68.10
2023-01-23T06:42:10.834Z,135.80
2023-01-23T06:42:47.163Z,81.20
2023-01-23T06:43:20.967Z,100.60
2023-01-23T06:43:55.159Z,153.30
2023-01-23T06:44:30.341Z,62.40
2023-01-23T06:45:04.007Z,81.30
2023-01-23T06:45:40.049Z,100.90
2023-01-23T06:46:13.630Z,42.10
2023-01-23T06:46:47.088Z,111.70
2023-01-23T06:47:20.738Z,79.40
2023-01-23T06:48:00.567Z,63.70
2023-01-23T06:48:34.734Z,66.90
2023-01-23T06:49:08.187Z,55.00
2023-01-23T06:49:43.124Z,61.00
2023-01-23T06:50:17.551Z,43.40
2023-01-23T06:50:51.367Z,81.20
2023-01-23T06:51:25.097Z,66.50
2023-01-23T06:51:58.588Z,70.00
2023-01-23T06:52:32.158Z,90.20
2023-01-23T06:53:05.792Z,68.50
2023-01-23T06:53:39.425Z,54.70
2023-01-23T06:54:12.966Z,58.50
2023-01-23T06:54:46.450Z,88.70
2023-01-23T06:55:21.402Z,85.20
2023-01-23T06:56:00.140Z,70.60
2023-01-23T06:56:33.704Z,94.00
2023-01-23T06:57:09.286Z,67.80
2023-01-23T06:57:42.666Z,48.40
2023-01-23T06:58:16.261Z,89.10
2023-01-23T06:58:49.785Z,82.50
2023-01-23T06:59:35.742Z,49.10
2023-01-23T07:00:10.289Z,153.60
2023-01-23T07:00:44.750Z,97.70
2023-01-23T07:01:24.476Z,113.70
2023-01-23T07:02:16.043Z,63.30
2023-01-23T07:02:53.322Z,58.70
2023-01-23T07:03:26.851Z,98.90
2023-01-23T07:04:00.201Z,49.10
2023-01-23T07:04:33.761Z,52.20
2023-01-23T07:05:07.476Z,60.90
2023-01-23T07:05:43.600Z,54.80
2023-01-23T07:06:18.368Z,54.10
2023-01-23T07:06:51.934Z,60.80
2023-01-23T07:07:25.985Z,71.00
2023-01-23T07:07:59.987Z,53.80
2023-01-23T07:08:35.658Z,67.60
2023-01-23T07:09:11.783Z,58.10
2023-01-23T07:09:45.445Z,71.30
2023-01-23T07:10:39.887Z,43.40
2023-01-23T07:11:13.444Z,51.60
2023-01-23T07:11:46.821Z,48.50
2023-01-23T07:12:22.368Z,77.20
2023-01-23T07:12:56.160Z,49.80
2023-01-23T07:13:29.869Z,65.00
2023-01-23T07:14:03.800Z,53.40
2023-01-23T07:14:37.573Z,83.00
2023-01-23T07:15:11.374Z,50.90
2023-01-23T07:15:48.106Z,67.80
2023-01-23T07:16:21.581Z,50.30
2023-01-23T07:16:55.855Z,50.40
2023-01-23T07:17:29.488Z,58.00
2023-01-23T07:18:03.503Z,63.70
2023-01-23T07:18:37.035Z,71.20
2023-01-23T07:19:11.096Z,85.10
2023-01-23T07:19:45.739Z,60.10
2023-01-23T07:20:22.038Z,64.00
2023-01-23T07:21:00.989Z,79.00
2023-01-23T07:21:34.648Z,62.30
2023-01-23T07:22:08.100Z,79.70
2023-01-23T07:22:41.645Z,63.70
2023-01-23T07:23:15.144Z,51.70
2023-01-23T07:23:48.513Z,53.30
2023-01-23T07:24:21.850Z,49.00
2023-01-23T07:24:55.260Z,63.80
2023-01-23T07:25:28.572Z,69.30
2023-01-23T07:26:04.206Z,77.00
2023-01-23T07:26:37.589Z,80.50
2023-01-23T07:27:10.988Z,79.40
2023-01-23T07:27:44.388Z,51.00
2023-01-23T07:28:17.784Z,65.20
2023-01-23T07:28:51.240Z,72.70
2023-01-23T07:29:24.685Z,72.30
2023-01-23T07:29:58.096Z,67.90
2023-01-23T07:30:32.150Z,85.30
2023-01-23T07:31:06.663Z,62.00
2023-01-23T07:31:40.248Z,80.00
2023-01-23T07:32:13.615Z,69.60
2023-01-23T07:32:47.194Z,58.20
2023-01-23T07:33:20.586Z,75.10
2023-01-23T07:33:53.892Z,82.60
2023-01-23T07:34:27.949Z,77.60
2023-01-23T07:35:01.384Z,56.30
2023-01-23T07:35:34.971Z,79.20
2023-01-23T07:36:09.242Z,62.80
2023-01-23T07:36:45.071Z,59.10
2023-01-23T07:37:18.818Z,70.80
2023-01-23T07:37:52.300Z,67.40
2023-01-23T07:38:26.118Z,68.30
2023-01-23T07:38:59.663Z,46.70
2023-01-23T07:39:33.446Z,62.80
2023-01-23T07:40:07.295Z,43.00
2023-01-23T07:40:43.050Z,55.40
2023-01-23T07:41:16.627Z,64.50
2023-01-23T07:41:58.810Z,55.20
2023-01-23T07:42:36.649Z,64.60
2023-01-23T07:43:10.161Z,62.10
2023-01-23T07:43:43.571Z,52.90
2023-01-23T07:44:20.787Z,70.30
2023-01-23T07:44:54.312Z,55.60
2023-01-23T07:45:27.830Z,50.00
2023-01-23T07:46:02.240Z,47.30